createdAt,value
2019-01-21T00:02:26.837Z,93289.98
2019-01-21T00:04:54.376Z,93287.34
2019-01-21T00:07:22.026Z,93289.95
2019-01-21T00:09:49.716Z,93288.85
2019-01-21T00:12:17.325Z,93283.07
2019-01-21T00:14:45.309Z,93289.13
2019-01-21T00:17:13.023Z,93291.73
2019-01-21T00:19:40.729Z,93294.25
2019-01-21T00:22:08.549Z,93299.06
2019-01-21T00:24:36.375Z,93303.03
2019-01-21T00:27:04.291Z,93302.88
2019-01-21T00:29:31.962Z,93307.77
2019-01-21T00:31:59.705Z,93318.55
2019-01-21T00:34:27.446Z,93314.52
2019-01-21T00:36:55.366Z,93318.91
2019-01-21T00:39:23.071Z,93324.61
2019-01-21T00:41:50.696Z,93330.94
2019-01-21T00:44:18.611Z,93328.88
2019-01-21T00:46:46.309Z,93329.78
2019-01-21T00:49:14.042Z,93330.20
2019-01-21T00:51:41.862Z,93322.47
2019-01-21T00:54:09.696Z,93329.38
2019-01-21T00:56:37.425Z,93328.59
2019-01-21T00:59:05.145Z,93329.00
2019-01-21T01:01:32.812Z,93338.30
2019-01-21T01:04:00.603Z,93337.30
2019-01-21T01:06:28.237Z,93340.53
2019-01-21T01:08:55.949Z,93341.20
2019-01-21T01:11:23.568Z,93342.33
2019-01-21T01:13:51.373Z,93341.87
2019-01-21T01:16:19.098Z,93338.28
2019-01-21T01:18:46.718Z,93342.85
2019-01-21T01:21:14.474Z,93342.19
2019-01-21T01:23:42.209Z,93338.47
2019-01-21T01:26:09.812Z,93339.84
2019-01-21T01:28:37.479Z,93336.73
2019-01-21T01:31:05.447Z,93341.41
2019-01-21T01:33:33.141Z,93334.22
2019-01-21T01:36:00.784Z,93335.09
2019-01-21T01:38:28.552Z,93331.98
2019-01-21T01:40:56.230Z,93332.89
2019-01-21T01:43:23.922Z,93338.75
2019-01-21T01:45:51.551Z,93334.95
2019-01-21T01:48:19.410Z,93333.33
2019-01-21T01:50:46.965Z,93330.69
2019-01-21T01:53:15.054Z,93335.41
2019-01-21T01:55:42.757Z,93323.96
2019-01-21T01:58:10.407Z,93331.06
2019-01-21T02:00:38.050Z,93323.52
2019-01-21T02:03:05.648Z,93324.84
2019-01-21T02:05:33.287Z,93331.65
2019-01-21T02:08:01.093Z,93324.05
2019-01-21T02:10:29.209Z,93329.25
2019-01-21T02:12:57.033Z,93325.77
2019-01-21T02:15:24.952Z,93329.66
2019-01-21T02:17:52.965Z,93321.19
2019-01-21T02:20:20.812Z,93327.95
2019-01-21T02:22:51.009Z,93326.02
2019-01-21T02:25:18.707Z,93323.49
2019-01-21T02:28:36.197Z,93332.59
2019-01-21T02:31:46.763Z,93328.98
2019-01-21T02:34:33.052Z,93334.89
2019-01-21T02:37:42.357Z,93334.84
2019-01-21T02:40:55.219Z,93336.74
2019-01-21T02:43:52.745Z,93337.57
2019-01-21T02:47:09.632Z,93342.70
2019-01-21T02:50:20.663Z,93339.47
2019-01-21T02:53:45.175Z,93344.60
2019-01-21T02:56:54.664Z,93338.73
2019-01-21T03:00:10.374Z,93337.41
2019-01-21T03:02:50.821Z,93337.73
2019-01-21T03:06:03.195Z,93332.98
2019-01-21T03:09:20.802Z,93328.36
2019-01-21T03:12:39.355Z,93329.48
2019-01-21T03:15:50.551Z,93339.28
2019-01-21T03:18:45.025Z,93341.39
2019-01-21T03:22:02.923Z,93331.14
2019-01-21T03:25:04.567Z,93337.05
2019-01-21T03:28:26.276Z,93332.61
2019-01-21T03:31:32.507Z,93334.84
2019-01-21T03:34:34.238Z,93328.58
2019-01-21T03:37:42.238Z,93321.34
2019-01-21T03:40:35.194Z,93325.23
2019-01-21T03:43:40.322Z,93321.38
2019-01-21T03:46:28.408Z,93319.65
2019-01-21T03:49:06.186Z,93320.55
2019-01-21T03:52:15.543Z,93322.70
2019-01-21T03:54:50.822Z,93321.01
2019-01-21T03:58:15.154Z,93320.09
2019-01-21T04:00:56.328Z,93321.05
2019-01-21T04:04:05.795Z,93316.04
2019-01-21T04:06:50.549Z,93315.66
2019-01-21T04:10:17.790Z,93320.01
2019-01-21T04:13:09.668Z,93319.27
2019-01-21T04:16:08.655Z,93320.14
2019-01-21T04:19:04.442Z,93318.81
2019-01-21T04:22:08.757Z,93329.57
2019-01-21T04:25:10.568Z,93323.61
2019-01-21T04:28:01.056Z,93318.91
2019-01-21T04:30:54.429Z,93321.47
2019-01-21T04:34:19.955Z,93329.48
2019-01-21T04:37:26.453Z,93327.55
2019-01-21T04:40:03.984Z,93331.92
2019-01-21T04:43:13.852Z,93328.27
2019-01-21T04:46:26.860Z,93332.80
2019-01-21T04:49:19.712Z,93338.50
2019-01-21T04:52:31.841Z,93343.22
2019-01-21T04:55:31.300Z,93342.73
2019-01-21T04:58:47.192Z,93348.31
2019-01-21T05:01:36.902Z,93348.65
2019-01-21T05:04:31.178Z,93350.05
2019-01-21T05:07:33.904Z,93360.18
2019-01-21T05:10:36.435Z,93355.02
2019-01-21T05:13:27.417Z,93361.33
2019-01-21T05:16:31.543Z,93361.46
2019-01-21T05:19:20.421Z,93371.71
2019-01-21T05:22:35.033Z,93370.84
2019-01-21T05:25:43.304Z,93371.17
2019-01-21T05:28:41.525Z,93379.72
2019-01-21T05:31:47.077Z,93380.75
2019-01-21T05:34:41.757Z,93382.38
2019-01-21T05:37:41.643Z,93383.66
2019-01-21T05:40:55.902Z,93380.14
2019-01-21T05:44:03.066Z,93380.26
2019-01-21T05:47:12.817Z,93386.26
2019-01-21T05:50:33.838Z,93383.36
2019-01-21T05:53:45.633Z,93383.20
2019-01-21T05:57:04.081Z,93391.18
2019-01-21T06:00:15.978Z,93394.28
2019-01-21T06:03:29.835Z,93396.80
2019-01-21T06:06:27.132Z,93397.25
